sensor_id;sensor_type;location;lat;lon;timestamp;P1;durP1;ratioP1;P2;durP2;ratioP2
72085;SDS011;64750;52.134;5.424;2024-01-30T00:00:44;11.17;;;8.17;;
72085;SDS011;64750;52.134;5.424;2024-01-30T00:03:11;8.95;;;7.72;;
72085;SDS011;64750;52.134;5.424;2024-01-30T00:05:37;9.25;;;8.43;;
72085;SDS011;64750;52.134;5.424;2024-01-30T00:08:04;10.18;;;8.77;;
72085;SDS011;64750;52.134;5.424;2024-01-30T00:10:31;9.60;;;8.60;;
72085;SDS011;64750;52.134;5.424;2024-01-30T00:12:57;11.27;;;8.50;;
72085;SDS011;64750;52.134;5.424;2024-01-30T00:15:23;9.35;;;8.43;;
72085;SDS011;64750;52.134;5.424;2024-01-30T00:17:50;9.05;;;8.20;;
72085;SDS011;64750;52.134;5.424;2024-01-30T00:20:20;10.55;;;8.55;;
72085;SDS011;64750;52.134;5.424;2024-01-30T00:22:47;9.27;;;8.20;;
72085;SDS011;64750;52.134;5.424;2024-01-30T00:25:13;9.90;;;8.40;;
72085;SDS011;64750;52.134;5.424;2024-01-30T00:27:40;11.50;;;8.32;;
72085;SDS011;64750;52.134;5.424;2024-01-30T00:30:07;8.73;;;7.93;;
72085;SDS011;64750;52.134;5.424;2024-01-30T00:32:35;12.98;;;9.00;;
72085;SDS011;64750;52.134;5.424;2024-01-30T00:35:01;11.00;;;8.52;;
72085;SDS011;64750;52.134;5.424;2024-01-30T00:37:28;10.87;;;8.70;;
72085;SDS011;64750;52.134;5.424;2024-01-30T00:39:54;9.50;;;8.43;;
72085;SDS011;64750;52.134;5.424;2024-01-30T00:42:21;9.45;;;8.35;;
72085;SDS011;64750;52.134;5.424;2024-01-30T00:44:50;9.52;;;8.45;;
72085;SDS011;64750;52.134;5.424;2024-01-30T00:47:16;8.77;;;7.85;;
72085;SDS011;64750;52.134;5.424;2024-01-30T00:49:42;12.53;;;8.27;;
72085;SDS011;64750;52.134;5.424;2024-01-30T00:52:09;8.60;;;7.80;;
72085;SDS011;64750;52.134;5.424;2024-01-30T00:54:36;9.73;;;8.73;;
72085;SDS011;64750;52.134;5.424;2024-01-30T00:57:03;9.57;;;8.27;;
72085;SDS011;64750;52.134;5.424;2024-01-30T00:59:29;8.93;;;8.10;;
72085;SDS011;64750;52.134;5.424;2024-01-30T01:01:56;10.70;;;8.30;;
72085;SDS011;64750;52.134;5.424;2024-01-30T01:04:22;10.10;;;7.78;;
72085;SDS011;64750;52.134;5.424;2024-01-30T01:06:49;11.90;;;8.65;;
72085;SDS011;64750;52.134;5.424;2024-01-30T01:09:16;10.55;;;8.95;;
72085;SDS011;64750;52.134;5.424;2024-01-30T01:11:42;9.95;;;8.95;;
72085;SDS011;64750;52.134;5.424;2024-01-30T01:14:09;9.90;;;8.30;;
72085;SDS011;64750;52.134;5.424;2024-01-30T01:16:35;8.50;;;7.80;;
72085;SDS011;64750;52.134;5.424;2024-01-30T01:19:02;11.88;;;8.30;;
72085;SDS011;64750;52.134;5.424;2024-01-30T01:21:29;8.65;;;7.80;;
72085;SDS011;64750;52.134;5.424;2024-01-30T01:23:55;9.10;;;7.85;;
72085;SDS011;64750;52.134;5.424;2024-01-30T01:26:22;9.50;;;8.47;;
72085;SDS011;64750;52.134;5.424;2024-01-30T01:28:49;9.30;;;8.35;;
72085;SDS011;64750;52.134;5.424;2024-01-30T01:31:15;8.63;;;7.78;;
72085;SDS011;64750;52.134;5.424;2024-01-30T01:33:44;8.60;;;7.47;;
72085;SDS011;64750;52.134;5.424;2024-01-30T01:36:10;9.35;;;7.70;;
72085;SDS011;64750;52.134;5.424;2024-01-30T01:38:37;8.20;;;7.50;;
72085;SDS011;64750;52.134;5.424;2024-01-30T01:41:04;8.68;;;7.82;;
72085;SDS011;64750;52.134;5.424;2024-01-30T01:43:30;10.32;;;7.78;;
72085;SDS011;64750;52.134;5.424;2024-01-30T01:45:57;8.23;;;7.35;;
72085;SDS011;64750;52.134;5.424;2024-01-30T01:48:24;8.45;;;7.65;;
72085;SDS011;64750;52.134;5.424;2024-01-30T01:50:51;7.80;;;7.00;;
72085;SDS011;64750;52.134;5.424;2024-01-30T01:53:19;8.30;;;7.60;;
72085;SDS011;64750;52.134;5.424;2024-01-30T01:55:45;8.00;;;7.30;;
72085;SDS011;64750;52.134;5.424;2024-01-30T01:58:13;7.53;;;6.80;;
72085;SDS011;64750;52.134;5.424;2024-01-30T02:00:39;8.63;;;6.72;;
72085;SDS011;64750;52.134;5.424;2024-01-30T02:03:09;8.10;;;7.30;;
72085;SDS011;64750;52.134;5.424;2024-01-30T02:05:37;7.95;;;7.20;;
72085;SDS011;64750;52.134;5.424;2024-01-30T02:08:05;8.60;;;7.00;;
72085;SDS011;64750;52.134;5.424;2024-01-30T02:10:32;8.07;;;7.28;;
72085;SDS011;64750;52.134;5.424;2024-01-30T02:12:58;9.02;;;7.57;;
72085;SDS011;64750;52.134;5.424;2024-01-30T02:15:25;10.30;;;6.97;;
72085;SDS011;64750;52.134;5.424;2024-01-30T02:17:51;7.85;;;7.15;;
72085;SDS011;64750;52.134;5.424;2024-01-30T02:20:17;10.40;;;7.20;;
72085;SDS011;64750;52.134;5.424;2024-01-30T02:22:44;7.47;;;6.75;;
72085;SDS011;64750;52.134;5.424;2024-01-30T02:25:11;8.98;;;7.13;;
72085;SDS011;64750;52.134;5.424;2024-01-30T02:27:37;8.53;;;7.33;;
72085;SDS011;64750;52.134;5.424;2024-01-30T02:30:04;8.15;;;7.45;;
72085;SDS011;64750;52.134;5.424;2024-01-30T02:32:31;8.05;;;7.30;;
72085;SDS011;64750;52.134;5.424;2024-01-30T02:34:58;7.30;;;6.72;;
72085;SDS011;64750;52.134;5.424;2024-01-30T02:37:24;7.10;;;6.40;;
72085;SDS011;64750;52.134;5.424;2024-01-30T02:39:51;7.30;;;6.70;;
72085;SDS011;64750;52.134;5.424;2024-01-30T02:42:17;7.22;;;6.47;;
72085;SDS011;64750;52.134;5.424;2024-01-30T02:44:44;7.70;;;7.00;;
72085;SDS011;64750;52.134;5.424;2024-01-30T02:47:10;10.65;;;7.07;;
72085;SDS011;64750;52.134;5.424;2024-01-30T02:49:37;9.15;;;6.75;;
72085;SDS011;64750;52.134;5.424;2024-01-30T02:52:03;9.20;;;7.17;;
72085;SDS011;64750;52.134;5.424;2024-01-30T02:54:30;7.97;;;7.20;;
72085;SDS011;64750;52.134;5.424;2024-01-30T02:56:57;8.18;;;7.03;;
72085;SDS011;64750;52.134;5.424;2024-01-30T02:59:23;8.52;;;7.63;;
72085;SDS011;64750;52.134;5.424;2024-01-30T03:01:50;9.93;;;7.95;;
72085;SDS011;64750;52.134;5.424;2024-01-30T03:04:16;11.77;;;8.53;;
72085;SDS011;64750;52.134;5.424;2024-01-30T03:06:46;11.68;;;8.35;;
72085;SDS011;64750;52.134;5.424;2024-01-30T03:09:16;14.52;;;8.60;;
72085;SDS011;64750;52.134;5.424;2024-01-30T03:11:43;9.65;;;8.50;;
72085;SDS011;64750;52.134;5.424;2024-01-30T03:14:10;15.07;;;9.30;;
72085;SDS011;64750;52.134;5.424;2024-01-30T03:16:37;10.87;;;9.10;;
72085;SDS011;64750;52.134;5.424;2024-01-30T03:19:05;12.75;;;9.88;;
72085;SDS011;64750;52.134;5.424;2024-01-30T03:21:33;13.30;;;9.18;;
72085;SDS011;64750;52.134;5.424;2024-01-30T03:24:00;13.75;;;9.52;;
72085;SDS011;64750;52.134;5.424;2024-01-30T03:26:26;11.93;;;8.90;;
72085;SDS011;64750;52.134;5.424;2024-01-30T03:28:53;12.00;;;8.87;;
72085;SDS011;64750;52.134;5.424;2024-01-30T03:31:19;13.63;;;10.13;;
72085;SDS011;64750;52.134;5.424;2024-01-30T03:33:46;16.38;;;9.10;;
72085;SDS011;64750;52.134;5.424;2024-01-30T03:36:13;15.25;;;9.20;;
72085;SDS011;64750;52.134;5.424;2024-01-30T03:38:41;14.25;;;9.55;;
72085;SDS011;64750;52.134;5.424;2024-01-30T03:41:08;11.00;;;9.10;;
72085;SDS011;64750;52.134;5.424;2024-01-30T03:43:36;10.35;;;8.38;;
72085;SDS011;64750;52.134;5.424;2024-01-30T03:46:03;12.15;;;8.93;;
72085;SDS011;64750;52.134;5.424;2024-01-30T03:48:29;10.05;;;7.85;;
72085;SDS011;64750;52.134;5.424;2024-01-30T03:50:56;9.45;;;8.43;;
72085;SDS011;64750;52.134;5.424;2024-01-30T03:53:23;13.30;;;8.00;;
72085;SDS011;64750;52.134;5.424;2024-01-30T03:55:49;10.02;;;7.20;;
72085;SDS011;64750;52.134;5.424;2024-01-30T03:58:16;7.95;;;7.13;;
72085;SDS011;64750;52.134;5.424;2024-01-30T04:00:43;7.32;;;6.50;;
72085;SDS011;64750;52.134;5.424;2024-01-30T04:03:09;8.02;;;7.25;;
72085;SDS011;64750;52.134;5.424;2024-01-30T04:05:36;8.40;;;6.73;;
72085;SDS011;64750;52.134;5.424;2024-01-30T04:08:02;9.07;;;6.90;;
72085;SDS011;64750;52.134;5.424;2024-01-30T04:10:29;6.82;;;6.13;;
72085;SDS011;64750;52.134;5.424;2024-01-30T04:12:55;8.40;;;6.35;;
72085;SDS011;64750;52.134;5.424;2024-01-30T04:15:22;6.40;;;5.75;;
72085;SDS011;64750;52.134;5.424;2024-01-30T04:17:48;7.47;;;6.57;;
72085;SDS011;64750;52.134;5.424;2024-01-30T04:20:15;7.03;;;6.30;;
72085;SDS011;64750;52.134;5.424;2024-01-30T04:22:46;6.35;;;5.75;;
72085;SDS011;64750;52.134;5.424;2024-01-30T04:25:13;6.43;;;5.82;;
72085;SDS011;64750;52.134;5.424;2024-01-30T04:27:40;7.13;;;6.07;;
72085;SDS011;64750;52.134;5.424;2024-01-30T04:30:07;7.17;;;6.33;;
72085;SDS011;64750;52.134;5.424;2024-01-30T04:32:34;7.28;;;5.90;;
72085;SDS011;64750;52.134;5.424;2024-01-30T04:35:01;9.95;;;5.78;;
72085;SDS011;64750;52.134;5.424;2024-01-30T04:37:28;6.32;;;5.72;;
72085;SDS011;64750;52.134;5.424;2024-01-30T04:39:55;7.82;;;6.55;;
72085;SDS011;64750;52.134;5.424;2024-01-30T04:42:21;7.80;;;6.27;;
72085;SDS011;64750;52.134;5.424;2024-01-30T04:44:48;7.90;;;5.95;;
72085;SDS011;64750;52.134;5.424;2024-01-30T04:47:14;5.70;;;5.20;;
72085;SDS011;64750;52.134;5.424;2024-01-30T04:49:41;7.22;;;5.70;;
72085;SDS011;64750;52.134;5.424;2024-01-30T04:52:08;6.72;;;5.70;;
72085;SDS011;64750;52.134;5.424;2024-01-30T04:54:35;7.87;;;5.53;;
72085;SDS011;64750;52.134;5.424;2024-01-30T04:57:02;5.88;;;5.28;;
72085;SDS011;64750;52.134;5.424;2024-01-30T04:59:29;6.55;;;5.82;;
72085;SDS011;64750;52.134;5.424;2024-01-30T05:01:55;5.97;;;5.45;;
72085;SDS011;64750;52.134;5.424;2024-01-30T05:04:22;6.15;;;5.55;;
72085;SDS011;64750;52.134;5.424;2024-01-30T05:06:48;15.23;;;6.47;;
72085;SDS011;64750;52.134;5.424;2024-01-30T05:09:15;6.82;;;5.75;;
72085;SDS011;64750;52.134;5.424;2024-01-30T05:11:41;7.03;;;5.78;;
72085;SDS011;64750;52.134;5.424;2024-01-30T05:14:08;8.20;;;5.25;;
72085;SDS011;64750;52.134;5.424;2024-01-30T05:16:35;7.80;;;6.10;;
72085;SDS011;64750;52.134;5.424;2024-01-30T05:19:01;6.93;;;5.63;;
72085;SDS011;64750;52.134;5.424;2024-01-30T05:21:29;6.00;;;5.40;;
72085;SDS011;64750;52.134;5.424;2024-01-30T05:23:55;8.73;;;5.47;;
72085;SDS011;64750;52.134;5.424;2024-01-30T05:26:22;5.80;;;4.82;;
72085;SDS011;64750;52.134;5.424;2024-01-30T05:28:49;6.30;;;5.45;;
72085;SDS011;64750;52.134;5.424;2024-01-30T05:31:15;6.20;;;5.43;;
72085;SDS011;64750;52.134;5.424;2024-01-30T05:33:42;6.78;;;6.10;;
72085;SDS011;64750;52.134;5.424;2024-01-30T05:36:11;7.00;;;5.43;;
72085;SDS011;64750;52.134;5.424;2024-01-30T05:38:41;7.18;;;6.05;;
72085;SDS011;64750;52.134;5.424;2024-01-30T05:41:08;8.65;;;6.05;;
72085;SDS011;64750;52.134;5.424;2024-01-30T05:43:35;6.97;;;6.47;;
72085;SDS011;64750;52.134;5.424;2024-01-30T05:46:01;6.20;;;5.60;;
72085;SDS011;64750;52.134;5.424;2024-01-30T05:48:27;7.95;;;5.68;;
72085;SDS011;64750;52.134;5.424;2024-01-30T05:50:54;6.38;;;5.78;;
72085;SDS011;64750;52.134;5.424;2024-01-30T05:53:21;8.52;;;5.53;;
72085;SDS011;64750;52.134;5.424;2024-01-30T05:55:47;7.10;;;6.03;;
72085;SDS011;64750;52.134;5.424;2024-01-30T05:58:14;8.52;;;5.80;;
72085;SDS011;64750;52.134;5.424;2024-01-30T06:00:40;5.85;;;4.90;;
72085;SDS011;64750;52.134;5.424;2024-01-30T06:03:07;6.93;;;5.60;;
72085;SDS011;64750;52.134;5.424;2024-01-30T06:05:34;7.65;;;5.68;;
72085;SDS011;64750;52.134;5.424;2024-01-30T06:08:01;7.13;;;5.50;;
72085;SDS011;64750;52.134;5.424;2024-01-30T06:10:28;5.85;;;5.28;;
72085;SDS011;64750;52.134;5.424;2024-01-30T06:12:55;6.15;;;5.43;;
72085;SDS011;64750;52.134;5.424;2024-01-30T06:15:21;6.15;;;5.55;;
72085;SDS011;64750;52.134;5.424;2024-01-30T06:17:48;6.15;;;5.65;;
72085;SDS011;64750;52.134;5.424;2024-01-30T06:20:14;9.47;;;5.70;;
72085;SDS011;64750;52.134;5.424;2024-01-30T06:22:41;5.93;;;5.40;;
72085;SDS011;64750;52.134;5.424;2024-01-30T06:25:08;8.88;;;5.75;;
72085;SDS011;64750;52.134;5.424;2024-01-30T06:27:34;5.82;;;5.30;;
72085;SDS011;64750;52.134;5.424;2024-01-30T06:30:01;9.25;;;5.85;;
72085;SDS011;64750;52.134;5.424;2024-01-30T06:32:27;8.50;;;5.77;;
72085;SDS011;64750;52.134;5.424;2024-01-30T06:34:55;8.15;;;5.95;;
72085;SDS011;64750;52.134;5.424;2024-01-30T06:37:21;7.97;;;6.03;;
72085;SDS011;64750;52.134;5.424;2024-01-30T06:39:48;5.85;;;5.28;;
72085;SDS011;64750;52.134;5.424;2024-01-30T06:42:14;6.15;;;5.55;;
72085;SDS011;64750;52.134;5.424;2024-01-30T06:44:41;6.20;;;5.57;;
72085;SDS011;64750;52.134;5.424;2024-01-30T06:47:07;5.93;;;5.43;;
72085;SDS011;64750;52.134;5.424;2024-01-30T06:49:34;7.47;;;6.18;;
72085;SDS011;64750;52.134;5.424;2024-01-30T06:52:01;8.50;;;5.35;;
72085;SDS011;64750;52.134;5.424;2024-01-30T06:54:27;6.40;;;5.80;;
72085;SDS011;64750;52.134;5.424;2024-01-30T06:56:54;5.73;;;5.10;;
72085;SDS011;64750;52.134;5.424;2024-01-30T06:59:20;5.63;;;5.13;;
72085;SDS011;64750;52.134;5.424;2024-01-30T07:01:47;7.22;;;5.75;;
72085;SDS011;64750;52.134;5.424;2024-01-30T07:04:13;6.70;;;5.68;;
72085;SDS011;64750;52.134;5.424;2024-01-30T07:06:40;6.65;;;5.75;;
72085;SDS011;64750;52.134;5.424;2024-01-30T07:09:07;6.90;;;5.30;;
72085;SDS011;64750;52.134;5.424;2024-01-30T07:11:34;5.97;;;5.38;;
72085;SDS011;64750;52.134;5.424;2024-01-30T07:14:01;6.00;;;5.50;;
72085;SDS011;64750;52.134;5.424;2024-01-30T07:16:30;6.63;;;5.47;;
72085;SDS011;64750;52.134;5.424;2024-01-30T07:18:56;6.18;;;5.60;;
72085;SDS011;64750;52.134;5.424;2024-01-30T07:21:24;8.00;;;5.60;;
72085;SDS011;64750;52.134;5.424;2024-01-30T07:23:54;7.03;;;5.63;;
72085;SDS011;64750;52.134;5.424;2024-01-30T07:26:21;7.13;;;5.30;;
72085;SDS011;64750;52.134;5.424;2024-01-30T07:28:48;6.18;;;5.47;;
72085;SDS011;64750;52.134;5.424;2024-01-30T07:31:16;8.75;;;5.10;;
72085;SDS011;64750;52.134;5.424;2024-01-30T07:33:42;5.83;;;5.33;;
72085;SDS011;64750;52.134;5.424;2024-01-30T07:36:09;7.32;;;5.72;;
72085;SDS011;64750;52.134;5.424;2024-01-30T07:38:36;6.40;;;5.80;;
72085;SDS011;64750;52.134;5.424;2024-01-30T07:41:03;6.15;;;5.55;;
72085;SDS011;64750;52.134;5.424;2024-01-30T07:43:30;6.45;;;5.85;;
72085;SDS011;64750;52.134;5.424;2024-01-30T07:45:56;5.83;;;5.33;;
72085;SDS011;64750;52.134;5.424;2024-01-30T07:48:23;6.07;;;5.47;;
72085;SDS011;64750;52.134;5.424;2024-01-30T07:50:49;8.55;;;5.40;;
72085;SDS011;64750;52.134;5.424;2024-01-30T07:53:16;7.25;;;5.10;;
72085;SDS011;64750;52.134;5.424;2024-01-30T07:55:42;6.20;;;5.63;;
72085;SDS011;64750;52.134;5.424;2024-01-30T07:58:12;15.03;;;5.70;;
72085;SDS011;64750;52.134;5.424;2024-01-30T08:00:39;9.63;;;5.80;;
72085;SDS011;64750;52.134;5.424;2024-01-30T08:03:06;8.57;;;5.57;;
72085;SDS011;64750;52.134;5.424;2024-01-30T08:05:32;7.05;;;5.32;;
72085;SDS011;64750;52.134;5.424;2024-01-30T08:07:59;6.30;;;5.65;;
72085;SDS011;64750;52.134;5.424;2024-01-30T08:10:25;5.50;;;5.00;;
72085;SDS011;64750;52.134;5.424;2024-01-30T08:12:52;7.60;;;6.43;;
72085;SDS011;64750;52.134;5.424;2024-01-30T08:15:19;6.35;;;5.75;;
72085;SDS011;64750;52.134;5.424;2024-01-30T08:17:45;5.88;;;5.38;;
72085;SDS011;64750;52.134;5.424;2024-01-30T08:20:12;10.43;;;6.30;;
72085;SDS011;64750;52.134;5.424;2024-01-30T08:22:40;5.70;;;5.10;;
72085;SDS011;64750;52.134;5.424;2024-01-30T08:25:07;6.70;;;5.45;;
72085;SDS011;64750;52.134;5.424;2024-01-30T08:27:34;6.38;;;5.88;;
72085;SDS011;64750;52.134;5.424;2024-01-30T08:30:02;6.53;;;5.03;;
72085;SDS011;64750;52.134;5.424;2024-01-30T08:32:29;6.07;;;5.47;;
72085;SDS011;64750;52.134;5.424;2024-01-30T08:34:56;6.83;;;5.37;;
72085;SDS011;64750;52.134;5.424;2024-01-30T08:37:23;8.90;;;5.90;;
72085;SDS011;64750;52.134;5.424;2024-01-30T08:39:50;5.75;;;5.00;;
72085;SDS011;64750;52.134;5.424;2024-01-30T08:42:17;6.22;;;5.63;;
72085;SDS011;64750;52.134;5.424;2024-01-30T08:44:48;8.35;;;5.53;;
72085;SDS011;64750;52.134;5.424;2024-01-30T08:47:17;9.13;;;5.67;;
72085;SDS011;64750;52.134;5.424;2024-01-30T08:49:44;11.30;;;5.90;;
72085;SDS011;64750;52.134;5.424;2024-01-30T08:52:11;8.27;;;5.63;;
72085;SDS011;64750;52.134;5.424;2024-01-30T08:54:38;8.20;;;5.82;;
72085;SDS011;64750;52.134;5.424;2024-01-30T08:57:05;9.38;;;6.20;;
72085;SDS011;64750;52.134;5.424;2024-01-30T08:59:31;11.10;;;6.10;;
72085;SDS011;64750;52.134;5.424;2024-01-30T09:01:58;10.27;;;6.00;;
72085;SDS011;64750;52.134;5.424;2024-01-30T09:04:37;7.55;;;5.85;;
72085;SDS011;64750;52.134;5.424;2024-01-30T09:07:04;8.85;;;5.78;;
72085;SDS011;64750;52.134;5.424;2024-01-30T09:09:35;15.75;;;5.70;;
72085;SDS011;64750;52.134;5.424;2024-01-30T09:12:03;8.60;;;5.43;;
72085;SDS011;64750;52.134;5.424;2024-01-30T09:14:33;14.65;;;5.55;;
72085;SDS011;64750;52.134;5.424;2024-01-30T09:16:59;10.25;;;5.75;;
72085;SDS011;64750;52.134;5.424;2024-01-30T09:19:26;10.55;;;6.20;;
72085;SDS011;64750;52.134;5.424;2024-01-30T09:21:53;6.95;;;6.10;;
72085;SDS011;64750;52.134;5.424;2024-01-30T09:24:19;10.03;;;5.90;;
72085;SDS011;64750;52.134;5.424;2024-01-30T09:26:46;8.27;;;5.95;;
72085;SDS011;64750;52.134;5.424;2024-01-30T09:29:13;6.88;;;6.10;;
72085;SDS011;64750;52.134;5.424;2024-01-30T09:31:39;5.97;;;5.40;;
72085;SDS011;64750;52.134;5.424;2024-01-30T09:34:09;10.80;;;5.97;;
72085;SDS011;64750;52.134;5.424;2024-01-30T09:36:35;7.63;;;5.23;;
72085;SDS011;64750;52.134;5.424;2024-01-30T09:39:02;7.80;;;5.30;;
72085;SDS011;64750;52.134;5.424;2024-01-30T09:41:31;6.60;;;5.22;;
72085;SDS011;64750;52.134;5.424;2024-01-30T09:43:59;6.95;;;5.65;;
72085;SDS011;64750;52.134;5.424;2024-01-30T09:46:26;6.47;;;5.40;;
72085;SDS011;64750;52.134;5.424;2024-01-30T09:48:57;7.40;;;5.10;;
72085;SDS011;64750;52.134;5.424;2024-01-30T09:51:24;8.73;;;6.07;;
72085;SDS011;64750;52.134;5.424;2024-01-30T09:53:52;7.47;;;5.57;;
72085;SDS011;64750;52.134;5.424;2024-01-30T09:56:20;8.07;;;5.72;;
72085;SDS011;64750;52.134;5.424;2024-01-30T09:58:47;8.68;;;5.75;;
72085;SDS011;64750;52.134;5.424;2024-01-30T10:01:15;8.70;;;5.57;;
72085;SDS011;64750;52.134;5.424;2024-01-30T10:03:45;6.30;;;5.32;;
72085;SDS011;64750;52.134;5.424;2024-01-30T10:06:12;8.48;;;5.78;;
72085;SDS011;64750;52.134;5.424;2024-01-30T10:08:40;5.72;;;4.65;;
72085;SDS011;64750;52.134;5.424;2024-01-30T10:11:08;11.35;;;6.30;;
72085;SDS011;64750;52.134;5.424;2024-01-30T10:13:35;7.50;;;5.43;;
72085;SDS011;64750;52.134;5.424;2024-01-30T10:16:01;8.27;;;6.45;;
72085;SDS011;64750;52.134;5.424;2024-01-30T10:18:29;14.23;;;6.88;;
72085;SDS011;64750;52.134;5.424;2024-01-30T10:20:56;5.80;;;5.30;;
72085;SDS011;64750;52.134;5.424;2024-01-30T10:23:22;5.85;;;5.35;;
72085;SDS011;64750;52.134;5.424;2024-01-30T10:25:50;8.43;;;5.60;;
72085;SDS011;64750;52.134;5.424;2024-01-30T10:28:18;8.38;;;5.95;;
72085;SDS011;64750;52.134;5.424;2024-01-30T10:30:45;10.90;;;6.75;;
72085;SDS011;64750;52.134;5.424;2024-01-30T10:33:11;9.88;;;5.47;;
72085;SDS011;64750;52.134;5.424;2024-01-30T10:35:38;7.18;;;5.65;;
72085;SDS011;64750;52.134;5.424;2024-01-30T10:38:05;8.57;;;5.30;;
72085;SDS011;64750;52.134;5.424;2024-01-30T10:40:35;9.63;;;5.38;;
72085;SDS011;64750;52.134;5.424;2024-01-30T10:43:04;7.75;;;5.68;;
72085;SDS011;64750;52.134;5.424;2024-01-30T10:45:31;9.23;;;6.05;;
72085;SDS011;64750;52.134;5.424;2024-01-30T10:47:59;7.93;;;5.22;;
72085;SDS011;64750;52.134;5.424;2024-01-30T10:50:26;6.77;;;5.40;;
72085;SDS011;64750;52.134;5.424;2024-01-30T10:52:54;7.50;;;5.60;;
72085;SDS011;64750;52.134;5.424;2024-01-30T10:55:22;5.72;;;5.13;;
72085;SDS011;64750;52.134;5.424;2024-01-30T10:57:50;5.22;;;4.55;;
72085;SDS011;64750;52.134;5.424;2024-01-30T11:00:17;5.65;;;5.10;;
72085;SDS011;64750;52.134;5.424;2024-01-30T11:02:46;6.63;;;4.80;;
72085;SDS011;64750;52.134;5.424;2024-01-30T11:05:13;12.90;;;5.78;;
72085;SDS011;64750;52.134;5.424;2024-01-30T11:07:42;5.78;;;4.78;;
72085;SDS011;64750;52.134;5.424;2024-01-30T11:10:09;5.30;;;4.50;;
72085;SDS011;64750;52.134;5.424;2024-01-30T11:12:39;7.00;;;5.55;;
72085;SDS011;64750;52.134;5.424;2024-01-30T11:15:14;7.43;;;4.63;;
72085;SDS011;64750;52.134;5.424;2024-01-30T11:20:27;5.57;;;4.95;;
72085;SDS011;64750;52.134;5.424;2024-01-30T11:22:59;5.00;;;4.60;;
72085;SDS011;64750;52.134;5.424;2024-01-30T11:25:28;6.15;;;5.53;;
72085;SDS011;64750;52.134;5.424;2024-01-30T11:27:55;9.77;;;5.17;;
72085;SDS011;64750;52.134;5.424;2024-01-30T11:35:34;5.20;;;4.80;;
72085;SDS011;64750;52.134;5.424;2024-01-30T11:38:02;4.45;;;3.72;;
72085;SDS011;64750;52.134;5.424;2024-01-30T11:40:30;4.80;;;3.20;;
72085;SDS011;64750;52.134;5.424;2024-01-30T11:43:00;5.05;;;2.20;;
72085;SDS011;64750;52.134;5.424;2024-01-30T11:45:28;6.70;;;2.08;;
72085;SDS011;64750;52.134;5.424;2024-01-30T11:47:55;4.47;;;2.30;;
72085;SDS011;64750;52.134;5.424;2024-01-30T11:50:22;5.82;;;1.92;;
72085;SDS011;64750;52.134;5.424;2024-01-30T11:52:49;7.57;;;2.20;;
72085;SDS011;64750;52.134;5.424;2024-01-30T11:55:16;2.40;;;1.30;;
72085;SDS011;64750;52.134;5.424;2024-01-30T11:57:43;4.07;;;0.90;;
72085;SDS011;64750;52.134;5.424;2024-01-30T12:00:16;3.33;;;1.00;;
72085;SDS011;64750;52.134;5.424;2024-01-30T12:02:48;3.03;;;0.70;;
72085;SDS011;64750;52.134;5.424;2024-01-30T12:05:15;4.53;;;0.83;;
72085;SDS011;64750;52.134;5.424;2024-01-30T12:07:45;2.65;;;0.60;;
72085;SDS011;64750;52.134;5.424;2024-01-30T12:10:13;3.75;;;0.85;;
72085;SDS011;64750;52.134;5.424;2024-01-30T12:12:45;2.60;;;0.80;;
72085;SDS011;64750;52.134;5.424;2024-01-30T12:15:13;4.85;;;1.00;;
72085;SDS011;64750;52.134;5.424;2024-01-30T12:17:41;3.93;;;0.80;;
72085;SDS011;64750;52.134;5.424;2024-01-30T12:22:36;3.75;;;0.90;;
72085;SDS011;64750;52.134;5.424;2024-01-30T12:25:05;2.70;;;0.60;;
72085;SDS011;64750;52.134;5.424;2024-01-30T12:27:34;1.90;;;1.10;;
72085;SDS011;64750;52.134;5.424;2024-01-30T12:30:08;5.47;;;1.60;;
72085;SDS011;64750;52.134;5.424;2024-01-30T12:32:37;3.50;;;1.80;;
72085;SDS011;64750;52.134;5.424;2024-01-30T12:35:09;2.63;;;1.55;;
72085;SDS011;64750;52.134;5.424;2024-01-30T12:37:39;3.40;;;1.73;;
72085;SDS011;64750;52.134;5.424;2024-01-30T12:40:07;3.15;;;1.40;;
72085;SDS011;64750;52.134;5.424;2024-01-30T12:42:34;5.00;;;1.67;;
72085;SDS011;64750;52.134;5.424;2024-01-30T12:45:02;2.00;;;1.50;;
72085;SDS011;64750;52.134;5.424;2024-01-30T12:47:29;3.22;;;1.40;;
72085;SDS011;64750;52.134;5.424;2024-01-30T12:49:55;5.13;;;1.15;;
72085;SDS011;64750;52.134;5.424;2024-01-30T12:52:22;3.45;;;1.00;;
72085;SDS011;64750;52.134;5.424;2024-01-30T12:54:49;2.40;;;1.20;;
72085;SDS011;64750;52.134;5.424;2024-01-30T12:57:16;2.55;;;1.02;;
72085;SDS011;64750;52.134;5.424;2024-01-30T12:59:44;8.10;;;1.40;;
72085;SDS011;64750;52.134;5.424;2024-01-30T13:02:14;2.08;;;1.30;;
72085;SDS011;64750;52.134;5.424;2024-01-30T13:04:41;6.63;;;2.17;;
72085;SDS011;64750;52.134;5.424;2024-01-30T13:07:15;3.13;;;1.43;;
72085;SDS011;64750;52.134;5.424;2024-01-30T13:09:41;3.47;;;1.10;;
72085;SDS011;64750;52.134;5.424;2024-01-30T13:12:08;2.55;;;1.50;;
72085;SDS011;64750;52.134;5.424;2024-01-30T13:14:34;1.17;;;1.10;;
72085;SDS011;64750;52.134;5.424;2024-01-30T13:17:01;2.25;;;1.00;;
72085;SDS011;64750;52.134;5.424;2024-01-30T13:19:28;3.50;;;1.10;;
72085;SDS011;64750;52.134;5.424;2024-01-30T13:21:54;2.25;;;0.73;;
72085;SDS011;64750;52.134;5.424;2024-01-30T13:24:21;1.67;;;0.52;;
72085;SDS011;64750;52.134;5.424;2024-01-30T13:26:48;1.23;;;0.60;;
72085;SDS011;64750;52.134;5.424;2024-01-30T13:29:15;2.08;;;0.63;;
72085;SDS011;64750;52.134;5.424;2024-01-30T13:31:42;2.83;;;0.57;;
72085;SDS011;64750;52.134;5.424;2024-01-30T13:34:10;2.15;;;0.50;;
72085;SDS011;64750;52.134;5.424;2024-01-30T13:36:38;1.17;;;0.60;;
72085;SDS011;64750;52.134;5.424;2024-01-30T13:39:04;1.23;;;0.35;;
72085;SDS011;64750;52.134;5.424;2024-01-30T13:41:34;1.42;;;0.50;;
72085;SDS011;64750;52.134;5.424;2024-01-30T13:44:01;2.57;;;0.50;;
72085;SDS011;64750;52.134;5.424;2024-01-30T13:46:29;1.15;;;0.45;;
72085;SDS011;64750;52.134;5.424;2024-01-30T13:48:57;1.50;;;0.38;;
72085;SDS011;64750;52.134;5.424;2024-01-30T13:51:23;2.53;;;0.60;;
72085;SDS011;64750;52.134;5.424;2024-01-30T13:53:50;2.88;;;0.77;;
72085;SDS011;64750;52.134;5.424;2024-01-30T13:56:16;1.13;;;0.70;;
72085;SDS011;64750;52.134;5.424;2024-01-30T13:58:43;0.55;;;0.30;;
72085;SDS011;64750;52.134;5.424;2024-01-30T14:01:09;3.53;;;0.88;;
72085;SDS011;64750;52.134;5.424;2024-01-30T14:03:36;1.98;;;0.50;;
72085;SDS011;64750;52.134;5.424;2024-01-30T14:06:02;2.72;;;0.57;;
72085;SDS011;64750;52.134;5.424;2024-01-30T14:08:29;1.43;;;0.50;;
72085;SDS011;64750;52.134;5.424;2024-01-30T14:10:56;2.42;;;0.63;;
72085;SDS011;64750;52.134;5.424;2024-01-30T14:13:22;2.80;;;0.70;;
72085;SDS011;64750;52.134;5.424;2024-01-30T14:15:50;2.33;;;0.80;;
72085;SDS011;64750;52.134;5.424;2024-01-30T14:18:18;2.13;;;0.73;;
72085;SDS011;64750;52.134;5.424;2024-01-30T14:20:44;3.90;;;0.73;;
72085;SDS011;64750;52.134;5.424;2024-01-30T14:23:11;2.35;;;0.57;;
72085;SDS011;64750;52.134;5.424;2024-01-30T14:25:37;2.63;;;0.57;;
72085;SDS011;64750;52.134;5.424;2024-01-30T14:28:04;1.60;;;0.52;;
72085;SDS011;64750;52.134;5.424;2024-01-30T14:30:33;2.80;;;0.57;;
72085;SDS011;64750;52.134;5.424;2024-01-30T14:32:59;3.00;;;0.50;;
72085;SDS011;64750;52.134;5.424;2024-01-30T14:35:26;1.88;;;0.40;;
72085;SDS011;64750;52.134;5.424;2024-01-30T14:37:52;0.98;;;0.30;;
72085;SDS011;64750;52.134;5.424;2024-01-30T14:40:19;3.47;;;0.40;;
72085;SDS011;64750;52.134;5.424;2024-01-30T14:42:46;2.65;;;0.40;;
72085;SDS011;64750;52.134;5.424;2024-01-30T14:45:13;2.53;;;0.40;;
72085;SDS011;64750;52.134;5.424;2024-01-30T14:47:40;0.82;;;0.50;;
72085;SDS011;64750;52.134;5.424;2024-01-30T14:50:07;1.35;;;0.50;;
72085;SDS011;64750;52.134;5.424;2024-01-30T14:52:35;0.93;;;0.60;;
72085;SDS011;64750;52.134;5.424;2024-01-30T14:55:03;2.03;;;0.65;;